createdAt,value
2023-04-08T00:01:42.602Z,9.65
2023-04-08T00:04:09.850Z,9.38
2023-04-08T00:06:37.214Z,11.57
2023-04-08T00:09:04.069Z,9.63
2023-04-08T00:11:30.788Z,9.23
2023-04-08T00:13:57.416Z,10.20
2023-04-08T00:16:24.063Z,9.57
2023-04-08T00:18:51.226Z,9.52
2023-04-08T00:21:20.458Z,9.93
2023-04-08T00:23:47.315Z,9.23
2023-04-08T00:26:13.915Z,10.60
2023-04-08T00:28:41.119Z,9.30
2023-04-08T00:31:07.810Z,9.45
2023-04-08T00:33:34.577Z,9.38
2023-04-08T00:36:01.236Z,10.55
2023-04-08T00:38:27.908Z,9.13
2023-04-08T00:40:54.516Z,9.82
2023-04-08T00:43:21.238Z,9.13
2023-04-08T00:45:48.185Z,9.32
2023-04-08T00:48:14.811Z,9.30
2023-04-08T00:50:42.958Z,10.07
2023-04-08T00:53:09.991Z,8.70
2023-04-08T00:55:36.598Z,10.02
2023-04-08T00:58:03.278Z,9.70
2023-04-08T01:00:30.222Z,9.25
2023-04-08T01:03:23.577Z,9.43
2023-04-08T01:05:56.562Z,8.98
2023-04-08T01:08:23.266Z,10.57
2023-04-08T01:10:50.902Z,9.43
2023-04-08T01:13:18.118Z,10.30
2023-04-08T01:15:44.762Z,8.98
2023-04-08T01:18:12.541Z,8.60
2023-04-08T01:20:40.303Z,8.50
2023-04-08T01:23:14.674Z,7.88
2023-04-08T01:26:03.196Z,8.23
2023-04-08T01:28:30.511Z,9.15
2023-04-08T01:30:58.211Z,8.40
2023-04-08T01:33:24.961Z,9.00
2023-04-08T01:35:51.983Z,8.75
2023-04-08T01:38:19.812Z,8.38
2023-04-08T01:40:46.988Z,7.45
2023-04-08T01:43:14.767Z,7.07
2023-04-08T01:45:42.395Z,9.13
2023-04-08T01:48:09.021Z,8.75
2023-04-08T01:50:35.677Z,9.48
2023-04-08T01:53:02.279Z,9.07
2023-04-08T01:55:28.922Z,8.63
2023-04-08T01:57:56.243Z,8.57
2023-04-08T02:00:25.909Z,7.63
2023-04-08T02:02:53.231Z,7.80
2023-04-08T02:05:20.296Z,7.43
2023-04-08T02:07:49.968Z,6.85
2023-04-08T02:10:16.757Z,7.15
2023-04-08T02:12:44.312Z,7.43
2023-04-08T02:15:12.192Z,6.93
2023-04-08T02:17:54.997Z,6.80
2023-04-08T02:20:32.039Z,6.85
2023-04-08T02:23:10.945Z,7.18
2023-04-08T02:25:38.719Z,7.57
2023-04-08T02:28:06.874Z,7.50
2023-04-08T02:30:33.477Z,7.22
2023-04-08T02:33:00.198Z,6.57
2023-04-08T02:35:26.924Z,7.28
2023-04-08T02:37:53.594Z,7.00
2023-04-08T02:40:23.895Z,6.47
2023-04-08T02:42:50.534Z,6.28
2023-04-08T02:45:17.633Z,6.63
2023-04-08T02:47:44.311Z,6.70
2023-04-08T02:50:11.103Z,6.40
2023-04-08T02:52:37.698Z,5.63
2023-04-08T02:55:06.610Z,6.07
2023-04-08T02:57:33.209Z,6.35
2023-04-08T02:59:59.827Z,6.45
2023-04-08T03:02:26.567Z,6.25
2023-04-08T03:04:53.325Z,6.57
2023-04-08T03:07:19.927Z,5.82
2023-04-08T03:09:46.743Z,6.55
2023-04-08T03:12:13.341Z,6.85
2023-04-08T03:14:39.982Z,7.35
2023-04-08T03:17:06.582Z,7.22
2023-04-08T03:19:33.202Z,7.28
2023-04-08T03:21:59.797Z,7.45
2023-04-08T03:24:26.407Z,7.43
2023-04-08T03:26:53.007Z,6.50
2023-04-08T03:29:19.641Z,6.40
2023-04-08T03:31:46.470Z,6.97
2023-04-08T03:34:13.231Z,7.07
2023-04-08T03:36:39.826Z,6.65
2023-04-08T03:39:06.543Z,7.18
2023-04-08T03:41:33.141Z,7.47
2023-04-08T03:43:59.785Z,7.70
2023-04-08T03:46:26.398Z,7.97
2023-04-08T03:48:53.084Z,7.88
2023-04-08T03:51:19.668Z,7.90
2023-04-08T03:53:46.277Z,7.15
2023-04-08T03:56:12.871Z,8.07
2023-04-08T03:58:39.546Z,8.43
2023-04-08T04:01:06.165Z,7.38
2023-04-08T04:03:32.892Z,8.48
2023-04-08T04:05:59.581Z,8.35
2023-04-08T04:08:26.192Z,7.97
2023-04-08T04:10:52.791Z,9.23
2023-04-08T04:13:19.661Z,8.20
2023-04-08T04:15:46.335Z,8.07
2023-04-08T04:18:12.970Z,8.35
2023-04-08T04:20:42.601Z,9.23
2023-04-08T04:23:09.532Z,8.40
2023-04-08T04:25:36.167Z,8.57
2023-04-08T04:28:03.500Z,9.98
2023-04-08T04:30:30.276Z,9.10
2023-04-08T04:32:57.665Z,9.40
2023-04-08T04:35:24.441Z,8.52
2023-04-08T04:37:51.879Z,8.60
2023-04-08T04:40:18.558Z,8.45
2023-04-08T04:42:45.299Z,7.97
2023-04-08T04:45:12.435Z,8.30
2023-04-08T04:47:39.102Z,7.93
2023-04-08T04:50:06.967Z,7.80
2023-04-08T04:52:33.563Z,9.30
2023-04-08T04:55:00.395Z,8.60
2023-04-08T04:57:27.002Z,8.43
2023-04-08T04:59:53.665Z,9.10
2023-04-08T05:02:20.554Z,9.07
2023-04-08T05:04:47.260Z,8.70
2023-04-08T05:07:13.868Z,8.77
2023-04-08T05:09:40.584Z,8.50
2023-04-08T05:12:07.190Z,9.05
2023-04-08T05:14:33.908Z,8.43
2023-04-08T05:17:00.825Z,9.73
2023-04-08T05:19:27.447Z,9.80
2023-04-08T05:21:54.060Z,9.95
2023-04-08T05:24:20.740Z,10.50
2023-04-08T05:26:48.788Z,10.25
2023-04-08T05:29:15.461Z,10.52
2023-04-08T05:31:42.105Z,10.60
2023-04-08T05:34:08.754Z,10.07
2023-04-08T05:36:35.350Z,11.13
2023-04-08T05:39:03.312Z,11.10
2023-04-08T05:41:30.226Z,11.07
2023-04-08T05:43:56.901Z,11.40
2023-04-08T05:46:23.546Z,11.20
2023-04-08T05:48:50.817Z,11.40
2023-04-08T05:51:17.955Z,12.20
2023-04-08T05:53:47.696Z,11.88
2023-04-08T05:56:14.353Z,12.32
2023-04-08T05:58:41.020Z,13.00
2023-04-08T06:01:07.911Z,12.38
2023-04-08T06:03:34.610Z,13.32
2023-04-08T06:06:01.446Z,12.95
2023-04-08T06:08:28.074Z,12.40
2023-04-08T06:10:54.720Z,12.57
2023-04-08T06:13:21.969Z,13.88
2023-04-08T06:15:51.424Z,14.32
2023-04-08T06:18:18.031Z,13.45
2023-04-08T06:20:44.702Z,14.73
2023-04-08T06:23:11.321Z,15.73
2023-04-08T06:25:37.983Z,14.48
2023-04-08T06:28:04.616Z,13.23
2023-04-08T06:30:31.241Z,14.65
2023-04-08T06:32:58.003Z,15.02
2023-04-08T06:35:24.889Z,14.60
2023-04-08T06:37:51.581Z,14.50
2023-04-08T06:40:19.247Z,14.35
2023-04-08T06:42:46.158Z,16.65
2023-04-08T06:45:12.819Z,17.40
2023-04-08T06:47:39.484Z,17.35
2023-04-08T06:50:06.955Z,18.15
2023-04-08T06:52:33.663Z,18.15
2023-04-08T06:55:00.281Z,16.73
2023-04-08T06:57:27.080Z,17.55
2023-04-08T06:59:53.705Z,17.73
2023-04-08T07:02:20.394Z,19.17
2023-04-08T07:04:47.093Z,20.85
2023-04-08T07:07:13.772Z,19.67
2023-04-08T07:09:43.299Z,19.60
2023-04-08T07:12:10.194Z,21.08
2023-04-08T07:14:36.802Z,19.48
2023-04-08T07:17:03.526Z,20.40
2023-04-08T07:19:30.936Z,18.90
2023-04-08T07:21:57.906Z,18.83
2023-04-08T07:24:24.648Z,18.17
2023-04-08T07:26:51.430Z,18.35
2023-04-08T07:29:18.232Z,18.55
2023-04-08T07:31:44.893Z,19.70
2023-04-08T07:34:11.766Z,18.35
2023-04-08T07:36:38.482Z,18.98
2023-04-08T07:39:05.311Z,18.13
2023-04-08T07:41:31.947Z,17.85
2023-04-08T07:43:58.536Z,20.70
2023-04-08T07:46:25.275Z,18.80
2023-04-08T07:48:52.206Z,17.35
2023-04-08T07:51:20.389Z,16.67
2023-04-08T07:53:47.678Z,15.57
2023-04-08T07:56:14.961Z,18.65
2023-04-08T07:58:41.938Z,17.40
2023-04-08T08:01:19.713Z,17.13
2023-04-08T08:03:47.854Z,17.98
2023-04-08T08:06:15.129Z,17.58
2023-04-08T08:08:41.787Z,17.48
2023-04-08T08:11:08.648Z,15.68
2023-04-08T08:13:35.334Z,16.42
2023-04-08T08:16:02.092Z,16.40
2023-04-08T08:18:28.746Z,12.55
2023-04-08T08:20:55.386Z,10.88
2023-04-08T08:23:22.021Z,10.75
2023-04-08T08:25:48.640Z,11.32
2023-04-08T08:28:15.256Z,11.48
2023-04-08T08:30:41.904Z,10.75
2023-04-08T08:33:08.609Z,11.70
2023-04-08T08:35:35.406Z,12.68
2023-04-08T08:38:02.032Z,12.75
2023-04-08T08:40:28.649Z,12.30
2023-04-08T08:42:55.368Z,12.10
2023-04-08T08:45:22.107Z,12.70
2023-04-08T08:47:51.008Z,11.73
2023-04-08T08:50:18.525Z,13.02
2023-04-08T08:52:51.836Z,12.32
2023-04-08T08:55:39.547Z,12.45
2023-04-08T08:58:11.149Z,12.40
2023-04-08T09:00:45.061Z,12.55
2023-04-08T09:03:30.046Z,13.85
2023-04-08T09:05:57.786Z,14.25
2023-04-08T09:08:26.546Z,13.77
2023-04-08T09:10:54.271Z,13.55
2023-04-08T09:13:23.439Z,14.40
2023-04-08T09:16:10.395Z,13.80
2023-04-08T09:18:41.141Z,12.98
2023-04-08T09:21:07.831Z,13.55
2023-04-08T09:23:38.870Z,14.20
2023-04-08T09:26:12.643Z,14.95
2023-04-08T09:28:39.837Z,14.95
2023-04-08T09:31:22.332Z,13.85
2023-04-08T09:33:50.388Z,15.43
2023-04-08T09:36:17.447Z,14.30
2023-04-08T09:38:44.378Z,15.40
2023-04-08T09:41:14.931Z,14.65
2023-04-08T09:43:49.693Z,13.60
2023-04-08T09:46:18.248Z,14.50
2023-04-08T09:48:57.380Z,14.07
2023-04-08T09:51:24.169Z,16.35
2023-04-08T09:53:59.455Z,14.98
2023-04-08T09:56:27.042Z,14.27
2023-04-08T09:58:59.542Z,14.23
2023-04-08T10:01:30.588Z,14.57
2023-04-08T10:03:57.530Z,15.48
2023-04-08T10:06:28.953Z,15.25
2023-04-08T10:08:56.447Z,15.02
2023-04-08T10:11:23.230Z,16.30
2023-04-08T10:13:50.194Z,14.95
2023-04-08T10:16:17.494Z,15.52
2023-04-08T10:18:44.535Z,15.82
2023-04-08T10:21:31.977Z,17.15
2023-04-08T10:24:06.168Z,16.05
2023-04-08T10:26:43.328Z,15.57
2023-04-08T10:29:33.134Z,16.60
2023-04-08T10:31:59.921Z,17.17
2023-04-08T10:34:27.162Z,16.92
2023-04-08T10:36:55.702Z,17.85
2023-04-08T10:39:22.376Z,16.85
2023-04-08T10:41:50.112Z,17.35
2023-04-08T10:44:21.224Z,16.27
2023-04-08T10:46:48.424Z,16.17
2023-04-08T10:49:15.674Z,17.35
2023-04-08T10:51:44.033Z,17.95
2023-04-08T10:54:15.194Z,17.50
2023-04-08T10:56:49.413Z,17.13
2023-04-08T10:59:17.102Z,19.02
2023-04-08T11:01:45.180Z,18.58
2023-04-08T11:04:13.561Z,18.50
2023-04-08T11:06:42.190Z,18.67
2023-04-08T11:09:08.939Z,19.70
2023-04-08T11:11:36.032Z,21.15
2023-04-08T11:14:03.193Z,19.88
2023-04-08T11:16:29.878Z,20.48
2023-04-08T11:18:56.875Z,21.08
2023-04-08T11:21:23.963Z,20.65
2023-04-08T11:23:51.968Z,19.67
2023-04-08T11:26:21.914Z,20.52
2023-04-08T11:28:52.070Z,21.67
2023-04-08T11:31:20.648Z,19.70
2023-04-08T11:33:49.745Z,19.50
2023-04-08T11:36:17.961Z,20.05
2023-04-08T11:38:44.672Z,19.38
2023-04-08T11:41:11.997Z,20.02
2023-04-08T11:43:40.995Z,19.02
2023-04-08T11:46:11.450Z,20.15
2023-04-08T11:48:38.606Z,19.98
2023-04-08T11:51:12.583Z,20.20
2023-04-08T11:53:39.217Z,20.40
2023-04-08T11:56:19.033Z,20.13
2023-04-08T11:58:46.455Z,19.48
2023-04-08T12:01:13.438Z,20.02
2023-04-08T12:03:40.300Z,19.08
2023-04-08T12:06:08.756Z,19.42
2023-04-08T12:08:35.465Z,21.15
2023-04-08T12:11:16.689Z,20.95
2023-04-08T12:13:46.351Z,20.00
2023-04-08T12:16:14.303Z,18.80
2023-04-08T12:18:41.046Z,19.70
2023-04-08T12:21:07.708Z,19.77
2023-04-08T12:23:34.342Z,20.25
2023-04-08T12:26:00.947Z,19.80
2023-04-08T12:28:27.592Z,21.27
2023-04-08T12:30:54.515Z,20.13
2023-04-08T12:33:21.301Z,18.90
2023-04-08T12:35:47.959Z,20.88
2023-04-08T12:38:14.631Z,32.88
2023-04-08T12:40:41.234Z,22.15
2023-04-08T12:43:07.856Z,27.20
2023-04-08T12:45:34.447Z,42.08
2023-04-08T12:48:01.429Z,25.10
2023-04-08T12:50:28.260Z,25.35
2023-04-08T12:52:54.875Z,49.15
2023-04-08T12:55:24.831Z,20.60
2023-04-08T12:57:52.308Z,36.80
2023-04-08T13:00:19.475Z,21.73
2023-04-08T13:02:46.669Z,20.83
2023-04-08T13:05:13.423Z,29.83
2023-04-08T13:07:40.474Z,23.80
2023-04-08T13:10:08.434Z,24.67
2023-04-08T13:12:35.065Z,16.40
2023-04-08T13:15:01.720Z,17.65
2023-04-08T13:17:28.587Z,21.45
2023-04-08T13:19:55.521Z,20.42
2023-04-08T13:22:22.142Z,18.08
2023-04-08T13:24:48.794Z,12.80
2023-04-08T13:27:15.786Z,14.27
2023-04-08T13:29:42.426Z,14.00
2023-04-08T13:32:09.140Z,17.33
2023-04-08T13:34:35.766Z,15.48
2023-04-08T13:37:03.147Z,14.07
2023-04-08T13:39:29.770Z,17.42
2023-04-08T13:41:56.888Z,13.73
2023-04-08T13:44:23.638Z,14.10
2023-04-08T13:46:50.762Z,13.90
2023-04-08T13:49:17.460Z,13.25
2023-04-08T13:51:44.066Z,14.05
2023-04-08T13:54:10.766Z,13.60
2023-04-08T13:56:37.417Z,13.25
2023-04-08T13:59:04.079Z,13.30
2023-04-08T14:01:30.762Z,13.82
2023-04-08T14:03:57.453Z,13.43
2023-04-08T14:06:24.117Z,14.05
2023-04-08T14:08:50.997Z,12.70
2023-04-08T14:11:18.029Z,13.07
2023-04-08T14:13:44.666Z,13.77
2023-04-08T14:16:11.304Z,12.77
2023-04-08T14:18:38.451Z,13.40
2023-04-08T14:21:05.736Z,12.23
2023-04-08T14:23:32.393Z,11.98
2023-04-08T14:26:01.323Z,12.02
2023-04-08T14:28:27.974Z,13.57
2023-04-08T14:30:54.956Z,13.20
2023-04-08T14:33:21.653Z,13.98
2023-04-08T14:35:48.251Z,12.95
2023-04-08T14:38:14.908Z,12.50
2023-04-08T14:40:41.811Z,12.82
2023-04-08T14:43:08.429Z,12.65
2023-04-08T14:45:35.033Z,12.32
2023-04-08T14:48:02.034Z,12.73
2023-04-08T14:50:28.799Z,12.65
2023-04-08T14:52:55.673Z,13.25
2023-04-08T14:55:22.657Z,12.45
2023-04-08T14:57:49.389Z,12.50
2023-04-08T15:00:16.344Z,11.82
2023-04-08T15:02:43.021Z,12.43
2023-04-08T15:05:09.796Z,11.77
2023-04-08T15:07:36.713Z,11.20
2023-04-08T15:10:03.368Z,11.55
2023-04-08T15:12:30.058Z,11.43
2023-04-08T15:14:56.693Z,11.50
2023-04-08T15:17:23.387Z,10.32
2023-04-08T15:19:50.054Z,10.98
2023-04-08T15:22:16.652Z,12.57
2023-04-08T15:24:43.273Z,11.57
2023-04-08T15:27:09.885Z,12.80
2023-04-08T15:29:36.702Z,11.13
2023-04-08T15:32:03.393Z,11.82
2023-04-08T15:34:29.998Z,10.98
2023-04-08T15:36:57.174Z,12.30
2023-04-08T15:39:23.855Z,12.45
2023-04-08T15:41:50.466Z,12.02
2023-04-08T15:44:17.423Z,12.32
2023-04-08T15:46:44.094Z,12.52
2023-04-08T15:49:10.714Z,11.52
2023-04-08T15:51:37.365Z,11.93
2023-04-08T15:54:03.990Z,12.82
2023-04-08T15:56:31.096Z,14.27
2023-04-08T15:58:58.451Z,16.77
2023-04-08T16:01:25.105Z,17.17
2023-04-08T16:03:51.900Z,16.20
2023-04-08T16:06:18.587Z,15.73
2023-04-08T16:08:46.881Z,14.15
2023-04-08T16:11:13.656Z,17.50
2023-04-08T16:13:42.325Z,16.42
2023-04-08T16:16:09.032Z,17.83
2023-04-08T16:18:35.747Z,13.00
2023-04-08T16:21:05.594Z,17.20
2023-04-08T16:23:32.255Z,14.27
2023-04-08T16:25:58.874Z,31.10
2023-04-08T16:28:27.521Z,17.98
2023-04-08T16:30:54.273Z,18.75
2023-04-08T16:33:23.989Z,18.15
2023-04-08T16:35:50.657Z,18.65
2023-04-08T16:38:17.384Z,19.42
2023-04-08T16:40:43.999Z,18.98
2023-04-08T16:43:11.448Z,19.42
2023-04-08T16:45:40.288Z,21.48
2023-04-08T16:48:07.101Z,21.63
2023-04-08T16:50:33.709Z,22.45
2023-04-08T16:53:00.573Z,23.98
2023-04-08T16:55:27.218Z,22.35
2023-04-08T16:57:57.788Z,20.67
2023-04-08T17:00:24.614Z,19.08
2023-04-08T17:02:53.146Z,19.80
2023-04-08T17:05:19.940Z,20.27
2023-04-08T17:07:46.534Z,18.58
2023-04-08T17:10:13.640Z,19.60
2023-04-08T17:12:40.565Z,18.85
2023-04-08T17:15:08.138Z,19.25
2023-04-08T17:17:34.791Z,18.02
2023-04-08T17:20:01.919Z,20.38
2023-04-08T17:22:28.522Z,19.90
2023-04-08T17:24:55.245Z,20.77
2023-04-08T17:27:22.113Z,21.58
2023-04-08T17:29:48.782Z,22.58
2023-04-08T17:32:15.612Z,22.02
2023-04-08T17:34:42.527Z,21.60
2023-04-08T17:37:10.235Z,21.85
2023-04-08T17:39:40.600Z,23.80
2023-04-08T17:42:10.513Z,23.05
2023-04-08T17:44:37.565Z,24.63
2023-04-08T17:47:04.748Z,22.83
2023-04-08T17:49:31.584Z,24.50
2023-04-08T17:51:58.246Z,26.80
2023-04-08T17:54:25.019Z,29.17
2023-04-08T17:56:51.687Z,27.23
2023-04-08T17:59:18.336Z,26.48
2023-04-08T18:01:45.044Z,29.23
2023-04-08T18:04:12.494Z,25.92
2023-04-08T18:06:39.498Z,28.52
2023-04-08T18:09:06.219Z,31.13
2023-04-08T18:11:32.829Z,31.35
2023-04-08T18:14:02.949Z,32.08
2023-04-08T18:16:29.641Z,34.60
2023-04-08T18:18:56.290Z,32.97
2023-04-08T18:21:22.929Z,32.20
2023-04-08T18:23:52.683Z,31.30
2023-04-08T18:26:19.632Z,32.67
2023-04-08T18:28:46.276Z,33.03
2023-04-08T18:31:12.982Z,32.90
2023-04-08T18:33:39.827Z,33.33
2023-04-08T18:36:12.327Z,33.20
2023-04-08T18:38:40.796Z,34.35
2023-04-08T18:41:07.678Z,32.00
2023-04-08T18:43:34.368Z,31.13
2023-04-08T18:46:01.063Z,34.63
2023-04-08T18:48:27.714Z,31.85
2023-04-08T18:50:54.344Z,30.50
2023-04-08T18:53:21.884Z,32.70
2023-04-08T18:55:48.522Z,32.78
2023-04-08T18:58:15.136Z,32.72
2023-04-08T19:00:42.012Z,31.77
2023-04-08T19:03:10.288Z,34.22
2023-04-08T19:05:37.828Z,31.63
2023-04-08T19:08:04.920Z,39.90
2023-04-08T19:10:32.176Z,34.33
2023-04-08T19:12:59.184Z,39.72
2023-04-08T19:15:26.447Z,33.83
2023-04-08T19:17:53.114Z,36.00
2023-04-08T19:20:19.931Z,35.33
2023-04-08T19:22:48.259Z,35.72
2023-04-08T19:25:14.993Z,37.28
2023-04-08T19:27:41.589Z,35.25
2023-04-08T19:30:08.530Z,36.45
2023-04-08T19:32:35.429Z,33.95
2023-04-08T19:35:02.149Z,41.30
2023-04-08T19:37:28.770Z,37.42
2023-04-08T19:39:55.403Z,36.88
2023-04-08T19:42:22.360Z,34.55
2023-04-08T19:44:49.212Z,36.97
2023-04-08T19:47:17.500Z,34.85
2023-04-08T19:49:44.105Z,36.00
2023-04-08T19:52:10.871Z,38.17
2023-04-08T19:54:37.762Z,34.72
2023-04-08T19:57:08.038Z,33.30
2023-04-08T19:59:35.271Z,34.17
2023-04-08T20:02:03.730Z,35.67
2023-04-08T20:04:31.001Z,34.65
2023-04-08T20:06:57.838Z,34.90
2023-04-08T20:09:24.453Z,34.45
2023-04-08T20:11:51.051Z,35.40
2023-04-08T20:14:17.708Z,33.97
2023-04-08T20:16:44.668Z,34.10
2023-04-08T20:19:11.294Z,35.08
2023-04-08T20:21:38.646Z,31.92
2023-04-08T20:24:05.890Z,32.20
2023-04-08T20:26:32.482Z,37.20
2023-04-08T20:28:59.405Z,40.95
2023-04-08T20:31:26.679Z,37.40
2023-04-08T20:33:53.442Z,33.17
2023-04-08T20:36:20.653Z,33.30
2023-04-08T20:38:47.252Z,31.20
2023-04-08T20:41:18.903Z,33.38
2023-04-08T20:43:45.766Z,34.33
2023-04-08T20:46:12.363Z,32.33
2023-04-08T20:48:39.316Z,32.53
2023-04-08T20:51:06.042Z,31.33
2023-04-08T20:53:34.394Z,32.70
2023-04-08T20:56:01.741Z,31.60
2023-04-08T20:58:28.418Z,31.15
2023-04-08T21:00:55.085Z,30.63
2023-04-08T21:03:21.984Z,32.13
2023-04-08T21:05:49.365Z,32.33
2023-04-08T21:08:16.018Z,28.88
2023-04-08T21:10:42.625Z,31.75
2023-04-08T21:13:09.231Z,30.60
2023-04-08T21:15:35.841Z,29.38
2023-04-08T21:18:03.033Z,30.75
2023-04-08T21:20:29.819Z,32.08
2023-04-08T21:22:56.552Z,33.10
2023-04-08T21:25:23.198Z,33.45
2023-04-08T21:27:49.857Z,28.63
2023-04-08T21:30:17.843Z,30.50
2023-04-08T21:32:44.491Z,29.45
2023-04-08T21:35:11.257Z,28.63
2023-04-08T21:37:37.886Z,29.67
2023-04-08T21:40:04.868Z,29.17
2023-04-08T21:42:32.813Z,28.27
2023-04-08T21:44:59.817Z,28.33
2023-04-08T21:47:26.440Z,26.25
2023-04-08T21:49:53.133Z,29.27
2023-04-08T21:52:19.802Z,26.35
2023-04-08T21:54:49.754Z,28.08
2023-04-08T21:57:16.373Z,27.65
2023-04-08T21:59:42.982Z,25.83
2023-04-08T22:02:11.441Z,28.67
2023-04-08T22:04:38.392Z,28.20
2023-04-08T22:07:05.000Z,26.63
2023-04-08T22:09:31.609Z,27.77
2023-04-08T22:11:58.204Z,27.05
2023-04-08T22:14:24.805Z,28.35
2023-04-08T22:16:51.448Z,27.38
2023-04-08T22:19:18.043Z,27.55
2023-04-08T22:21:44.682Z,28.00
2023-04-08T22:24:11.281Z,28.10
2023-04-08T22:26:37.894Z,28.88
2023-04-08T22:29:04.526Z,28.83
2023-04-08T22:31:31.527Z,26.38
2023-04-08T22:33:58.114Z,27.90
2023-04-08T22:36:24.752Z,27.60
2023-04-08T22:38:51.539Z,27.42
2023-04-08T22:41:19.258Z,27.45
2023-04-08T22:43:46.286Z,26.70
2023-04-08T22:46:14.286Z,25.95
2023-04-08T22:48:44.624Z,28.77
2023-04-08T22:51:11.322Z,28.83
2023-04-08T22:53:38.056Z,28.55
2023-04-08T22:56:04.849Z,29.50
2023-04-08T22:58:31.461Z,30.58
2023-04-08T23:00:58.413Z,29.67
2023-04-08T23:03:25.087Z,30.90
2023-04-08T23:05:51.773Z,31.10
2023-04-08T23:08:18.428Z,31.35
2023-04-08T23:10:45.212Z,31.17
2023-04-08T23:13:13.891Z,30.65
2023-04-08T23:15:40.766Z,32.30
2023-04-08T23:18:07.458Z,31.00
2023-04-08T23:20:35.486Z,32.30
2023-04-08T23:23:03.337Z,33.55
2023-04-08T23:25:30.167Z,32.85
2023-04-08T23:27:56.772Z,31.92
2023-04-08T23:30:23.380Z,34.25
2023-04-08T23:32:50.061Z,33.25
2023-04-08T23:35:16.717Z,33.53
2023-04-08T23:37:43.316Z,34.20
2023-04-08T23:40:10.179Z,33.33
2023-04-08T23:42:36.776Z,36.10
2023-04-08T23:45:03.838Z,35.35
2023-04-08T23:47:31.128Z,35.42
2023-04-08T23:49:57.834Z,34.65
2023-04-08T23:52:24.468Z,34.15
2023-04-08T23:54:51.110Z,34.75
2023-04-08T23:57:20.171Z,35.70
2023-04-08T23:59:47.389Z,36.17
